Time;durP1;ratioP1;P1;durP2;ratioP2;P2;SDS_P1;SDS_P2;PMS_P1;PMS_P2;Temp;Humidity;BMP_temperature;BMP_pressure;BME280_temperature;BME280_humidity;BME280_pressure;Samples;Min_cycle;Max_cycle;Signal;HPM_P1;HPM_P2
2023/03/11 00:00:35;;;;;;;14.75;4.13;;;;;;;13.95;71.84;99253.69;4913051;28;20209;-85
2023/03/11 00:03:02;;;;;;;13.25;4.40;;;;;;;13.84;72.10;99271.44;4945887;28;20062;-87
2023/03/11 00:05:31;;;;;;;10.23;3.67;;;;;;;13.76;74.05;99243.84;4925181;29;20024;-85
2023/03/11 00:07:58;;;;;;;11.35;3.90;;;;;;;13.87;73.85;99270.19;4931406;29;20074;-85
2023/03/11 00:10:33;;;;;;;12.43;3.72;;;;;;;13.95;74.31;99269.91;4922421;29;20051;-86
2023/03/11 00:13:08;;;;;;;10.33;3.03;;;;;;;14.01;74.09;99238.50;4929145;29;20031;-86
2023/03/11 00:15:35;;;;;;;11.82;3.30;;;;;;;14.26;73.62;99271.81;4939098;29;20071;-84
2023/03/11 00:18:00;;;;;;;9.25;3.20;;;;;;;14.27;73.36;99253.72;4911222;29;20831;-85
2023/03/11 00:20:42;;;;;;;18.08;5.00;;;;;;;14.27;72.36;99229.38;4924296;29;20059;-84
2023/03/11 00:23:34;;;;;;;13.07;3.70;;;;;;;14.70;71.41;99255.66;4918832;28;20043;-86
2023/03/11 00:26:02;;;;;;;20.23;6.13;;;;;;;14.67;70.79;99243.41;4933290;28;20094;-83
2023/03/11 00:28:28;;;;;;;10.73;3.83;;;;;;;14.69;70.74;99230.50;4931518;29;20055;-83
2023/03/11 00:30:53;;;;;;;17.10;5.72;;;;;;;14.94;70.36;99254.00;4922782;29;20397;-87
2023/03/11 00:33:19;;;;;;;12.68;4.03;;;;;;;14.74;70.77;99227.94;4923581;28;20047;-85
2023/03/11 00:35:45;;;;;;;12.82;3.90;;;;;;;14.74;70.50;99206.31;4933283;29;20449;-84
2023/03/11 00:38:14;;;;;;;13.88;4.55;;;;;;;14.84;70.20;99210.38;4934548;29;20059;-84
2023/03/11 00:40:40;;;;;;;11.45;3.70;;;;;;;14.94;70.61;99225.06;4909277;29;20047;-85
2023/03/11 00:43:05;;;;;;;9.23;3.22;;;;;;;14.95;70.89;99224.00;4910295;29;20077;-86
2023/03/11 00:45:31;;;;;;;10.38;3.00;;;;;;;14.87;71.21;99199.94;4943979;28;20047;-86
2023/03/11 00:48:00;;;;;;;9.02;3.53;;;;;;;14.90;70.78;99188.66;4941660;28;20257;-84
2023/03/11 00:50:30;;;;;;;11.82;4.00;;;;;;;14.89;71.12;99195.16;4901843;29;20569;-89
2023/03/11 00:52:56;;;;;;;12.05;3.88;;;;;;;15.13;70.07;99198.00;4917347;29;20047;-87
2023/03/11 00:55:25;;;;;;;12.95;3.83;;;;;;;15.15;70.53;99204.03;4930793;28;20102;-85
2023/03/11 00:58:29;;;;;;;13.57;4.25;;;;;;;15.06;70.60;99202.66;4946317;29;20091;-85
2023/03/11 01:01:44;;;;;;;10.50;3.63;;;;;;;14.93;70.72;99165.75;4913028;29;20094;-85
2023/03/11 01:04:25;;;;;;;8.70;3.65;;;;;;;15.11;70.15;99156.78;4860621;29;20475;-86
2023/03/11 01:06:51;;;;;;;11.88;3.58;;;;;;;15.14;69.67;99184.22;4906690;29;20055;-85
2023/03/11 01:09:22;;;;;;;11.88;4.18;;;;;;;15.33;69.14;99179.59;4916255;28;20454;-86
2023/03/11 01:11:47;;;;;;;10.48;3.75;;;;;;;15.12;69.82;99185.50;4933997;28;20103;-84
2023/03/11 01:14:13;;;;;;;11.13;3.40;;;;;;;15.01;69.73;99164.59;4934490;29;20133;-86
2023/03/11 01:16:38;;;;;;;18.15;3.97;;;;;;;15.07;69.64;99171.81;4916881;29;20212;-84
2023/03/11 01:19:05;;;;;;;13.85;3.70;;;;;;;15.05;68.92;99158.50;4928464;29;20130;-85
2023/03/11 01:21:31;;;;;;;;;;;;;;;14.98;69.19;99185.69;4930929;28;20070;-87
2023/03/11 01:23:57;;;;;;;11.70;3.97;;;;;;;14.74;69.51;99151.38;4941451;28;19914;-85
2023/03/11 01:26:22;;;;;;;11.23;3.60;;;;;;;14.89;68.73;99165.38;4943191;28;21054;-85
2023/03/11 01:28:48;;;;;;;12.55;3.92;;;;;;;14.83;68.67;99158.16;4952156;29;20043;-85
2023/03/11 01:31:13;;;;;;;;;;;;;;;14.80;68.75;99158.63;4901185;29;20035;-85
2023/03/11 01:33:39;;;;;;;11.20;3.60;;;;;;;14.61;69.24;99162.34;4932621;28;20476;-83
2023/03/11 01:36:04;;;;;;;;;;;;;;;14.51;69.32;99160.94;4917463;29;20050;-85
2023/03/11 01:38:32;;;;;;;11.68;3.92;;;;;;;14.30;69.32;99139.72;4946982;29;19994;-87
2023/03/11 01:40:58;;;;;;;12.75;3.97;;;;;;;14.43;69.51;99160.41;4916026;29;20046;-84
2023/03/11 01:43:43;;;;;;;14.57;4.18;;;;;;;14.43;69.25;99158.53;4932211;29;20043;-85
2023/03/11 01:46:17;;;;;;;12.25;4.28;;;;;;;14.26;69.38;99150.16;4925112;29;20397;-85
2023/03/11 01:48:57;;;;;;;14.13;4.35;;;;;;;14.10;70.22;99162.34;4928478;29;20070;-84
2023/03/11 01:52:02;;;;;;;14.38;4.28;;;;;;;14.06;70.62;99155.72;4916047;29;20149;-86
2023/03/11 01:54:30;;;;;;;13.00;4.07;;;;;;;13.91;71.03;99134.44;4949129;28;20560;-84
2023/03/11 01:56:55;;;;;;;11.20;4.20;;;;;;;13.96;71.77;99144.59;4943405;29;20134;-81
2023/03/11 01:59:25;;;;;;;10.40;3.97;;;;;;;13.68;72.60;99148.53;4924644;29;20114;-83
2023/03/11 02:02:15;;;;;;;12.77;4.15;;;;;;;13.70;73.94;99149.16;4917358;29;20425;-85
2023/03/11 02:04:42;;;;;;;15.07;4.43;;;;;;;13.64;74.60;99141.91;4948372;29;20079;-83
2023/03/11 02:07:12;;;;;;;13.35;4.15;;;;;;;13.76;73.89;99131.22;4917609;29;20157;-85
2023/03/11 02:09:38;;;;;;;11.98;4.05;;;;;;;13.85;74.14;99140.72;4907613;29;20095;-85
2023/03/11 02:12:04;;;;;;;15.20;3.90;;;;;;;13.86;74.91;99141.53;4920132;29;20070;-85
2023/03/11 02:14:30;;;;;;;13.85;3.55;;;;;;;13.94;74.61;99119.66;4916063;29;20047;-86
2023/03/11 02:16:57;;;;;;;15.27;4.07;;;;;;;14.02;74.39;99135.59;4921267;29;20050;-84
2023/03/11 02:19:56;;;;;;;19.80;4.32;;;;;;;14.19;73.97;99132.34;4901262;29;20059;-88
2023/03/11 02:22:25;;;;;;;18.05;4.15;;;;;;;14.11;73.62;99123.47;4925515;29;20145;-89
2023/03/11 02:25:42;;;;;;;15.82;4.65;;;;;;;14.06;74.03;99117.91;4932960;29;20091;-83
2023/03/11 02:28:09;;;;;;;17.38;4.68;;;;;;;14.07;74.03;99116.88;4933200;29;20051;-86
2023/03/11 02:30:36;;;;;;;18.70;5.30;;;;;;;14.14;73.63;99117.63;4915541;29;20109;-85
2023/03/11 02:33:01;;;;;;;17.95;4.97;;;;;;;14.11;73.80;99118.06;4916941;29;20066;-84
2023/03/11 02:35:27;;;;;;;;;;;;;;;14.21;72.95;99124.84;4924883;29;20405;-86
2023/03/11 02:37:53;;;;;;;15.35;4.00;;;;;;;13.89;72.70;99106.00;4939863;29;19925;-85
2023/03/11 02:40:29;;;;;;;13.90;4.50;;;;;;;14.01;73.12;99120.44;4935641;29;20040;-84
2023/03/11 02:43:01;;;;;;;10.10;3.53;;;;;;;13.99;72.98;99106.31;4941879;29;20061;-85
2023/03/11 02:45:28;;;;;;;10.18;4.03;;;;;;;13.91;73.61;99109.31;4934865;29;20043;-83
2023/03/11 02:47:54;;;;;;;15.82;4.63;;;;;;;13.88;73.60;99101.63;4945233;29;20059;-85
2023/03/11 02:50:21;;;;;;;12.02;4.15;;;;;;;13.92;73.38;99113.66;4910171;28;20106;-87
2023/03/11 02:52:48;;;;;;;10.60;3.83;;;;;;;13.82;73.57;99086.31;4927641;29;20044;-84
2023/03/11 02:55:16;;;;;;;9.93;4.03;;;;;;;13.77;73.80;99086.97;4942323;29;20126;-84
2023/03/11 02:57:43;;;;;;;13.88;4.47;;;;;;;13.47;74.81;99086.78;4929758;29;20054;-85
2023/03/11 03:00:10;;;;;;;11.73;3.97;;;;;;;13.42;74.32;99062.31;4940053;29;20035;-84
2023/03/11 03:02:37;;;;;;;13.70;4.30;;;;;;;13.39;74.59;99046.53;4928756;29;20050;-82
2023/03/11 03:05:04;;;;;;;14.30;4.47;;;;;;;13.54;74.22;99071.38;4946448;29;20047;-83
2023/03/11 03:07:31;;;;;;;13.15;4.25;;;;;;;13.59;74.83;99085.03;4936072;29;20047;-85
2023/03/11 03:09:56;;;;;;;;;;;;;;;13.48;74.92;99083.03;4925926;29;20062;-84
2023/03/11 03:12:21;;;;;;;14.98;4.50;;;;;;;13.51;74.73;99079.91;4935326;29;20022;-84
2023/03/11 03:14:47;;;;;;;15.93;4.15;;;;;;;13.44;74.78;99062.94;4932723;29;20479;-83
2023/03/11 03:17:14;;;;;;;11.18;3.90;;;;;;;13.55;74.71;99073.00;4938163;29;20055;-85
2023/03/11 03:19:42;;;;;;;13.13;3.67;;;;;;;13.45;74.36;99051.06;4922341;29;20162;-84
2023/03/11 03:22:09;;;;;;;10.73;3.92;;;;;;;13.47;74.67;99071.41;4934873;29;20448;-86
2023/03/11 03:24:34;;;;;;;11.68;4.00;;;;;;;13.59;74.21;99068.00;4935739;29;20044;-84
2023/03/11 03:27:00;;;;;;;9.45;3.67;;;;;;;13.55;74.35;99056.81;4938391;28;20082;-84
2023/03/11 03:29:26;;;;;;;20.08;4.40;;;;;;;13.62;73.90;99062.97;4937303;29;20086;-83
2023/03/11 03:31:53;;;;;;;13.52;4.20;;;;;;;13.52;74.46;99057.25;4916692;29;20512;-85
2023/03/11 03:34:19;;;;;;;11.52;3.90;;;;;;;13.55;73.98;99040.59;4935663;29;20126;-85
2023/03/11 03:36:46;;;;;;;12.68;4.00;;;;;;;13.47;74.27;99032.78;4936040;29;20047;-83
2023/03/11 03:39:12;;;;;;;17.92;4.28;;;;;;;13.47;74.16;99028.22;4933063;29;20036;-85
2023/03/11 03:41:38;;;;;;;14.15;4.22;;;;;;;13.44;74.25;99025.13;4933926;29;20129;-88
2023/03/11 03:44:03;;;;;;;9.40;3.90;;;;;;;13.48;74.52;99029.03;4918849;29;20083;-84
2023/03/11 03:46:29;;;;;;;14.15;3.90;;;;;;;13.38;74.90;99031.41;4916379;29;20074;-86
2023/03/11 03:48:54;;;;;;;12.75;4.32;;;;;;;13.41;74.93;99022.84;4917312;29;20048;-83
2023/03/11 03:51:20;;;;;;;17.42;4.22;;;;;;;13.26;75.24;99026.66;4921789;29;20047;-85
2023/03/11 03:53:46;;;;;;;11.30;4.22;;;;;;;13.20;75.59;99021.31;4909350;29;20381;-83
2023/03/11 03:56:15;;;;;;;13.35;4.20;;;;;;;13.10;76.38;99024.50;4899858;29;20036;-83
2023/03/11 03:58:40;;;;;;;16.20;4.35;;;;;;;13.12;76.31;99043.19;4919700;29;20110;-83
2023/03/11 04:01:07;;;;;;;13.23;4.70;;;;;;;13.05;76.58;99043.22;4917238;29;20039;-84
2023/03/11 04:03:33;;;;;;;13.38;4.10;;;;;;;13.02;76.84;99036.38;4940076;29;20540;-83
2023/03/11 04:06:23;;;;;;;17.23;4.32;;;;;;;13.15;76.15;99031.94;4927973;29;20110;-83
2023/03/11 04:08:51;;;;;;;12.23;4.30;;;;;;;13.05;76.35;99032.41;4927024;29;20047;-85
2023/03/11 04:11:18;;;;;;;11.68;4.10;;;;;;;13.01;76.64;99023.91;4932138;29;20059;-84
2023/03/11 04:13:45;;;;;;;12.63;4.65;;;;;;;13.06;76.59;99031.34;4941385;29;20059;-82
2023/03/11 04:16:21;;;;;;;10.18;4.22;;;;;;;12.96;76.98;99021.03;4915869;29;20062;-84
2023/03/11 04:18:47;;;;;;;12.43;4.47;;;;;;;12.80;76.78;99003.50;4940772;29;20040;-84
2023/03/11 04:21:13;;;;;;;14.13;4.47;;;;;;;12.88;77.42;99014.03;4927432;29;20098;-85
2023/03/11 04:23:40;;;;;;;12.60;4.53;;;;;;;12.77;77.59;99001.22;4932737;29;20078;-84
2023/03/11 04:26:07;;;;;;;11.93;4.95;;;;;;;12.84;77.30;99006.59;4933980;29;20051;-83
2023/03/11 04:28:32;;;;;;;15.55;4.80;;;;;;;12.67;77.66;98985.53;4939028;28;20059;-84
2023/03/11 04:31:01;;;;;;;14.85;5.40;;;;;;;12.71;77.38;98979.69;4919308;29;20105;-83
2023/03/11 04:33:27;;;;;;;12.57;4.65;;;;;;;12.79;76.80;98993.75;4916943;29;20108;-84
2023/03/11 04:35:53;;;;;;;12.35;4.43;;;;;;;12.71;77.29;98980.50;4920682;29;20035;-83
2023/03/11 04:38:18;;;;;;;11.23;4.78;;;;;;;12.59;77.93;98966.88;4916558;29;20051;-85
2023/03/11 04:40:46;;;;;;;10.43;4.50;;;;;;;12.62;78.19;98960.25;4900372;29;20492;-83
2023/03/11 04:43:12;;;;;;;13.00;4.88;;;;;;;12.75;77.61;98959.34;4915037;29;20043;-83
2023/03/11 04:45:40;;;;;;;18.17;5.05;;;;;;;12.77;77.78;98963.47;4951931;29;20097;-83
2023/03/11 04:48:05;;;;;;;15.75;4.97;;;;;;;12.82;77.50;98950.16;4934311;29;20043;-83
2023/03/11 04:50:32;;;;;;;;;;;;;;;13.03;77.17;98975.16;4934725;29;20039;-82
2023/03/11 04:52:57;;;;;;;12.15;4.72;;;;;;;13.04;77.16;98982.19;4948849;29;20429;-83
2023/03/11 04:55:25;;;;;;;14.70;4.50;;;;;;;13.05;77.21;98992.78;4902805;29;20051;-85
2023/03/11 04:57:51;;;;;;;12.65;4.60;;;;;;;13.13;76.84;98988.16;4931465;29;20035;-84
2023/03/11 05:00:21;;;;;;;11.85;4.35;;;;;;;13.15;77.22;98981.50;4926802;29;20040;-83
2023/03/11 05:02:48;;;;;;;13.00;4.22;;;;;;;13.26;76.78;98961.09;4932408;29;20075;-85
2023/03/11 05:05:19;;;;;;;10.50;4.40;;;;;;;13.32;76.83;98959.41;4935299;28;20035;-85
2023/03/11 05:07:45;;;;;;;14.63;5.43;;;;;;;13.49;76.70;98960.50;4919127;29;20463;-84
2023/03/11 05:10:11;;;;;;;12.93;4.53;;;;;;;13.55;76.80;98964.19;4944650;29;20043;-87
2023/03/11 05:12:38;;;;;;;13.85;4.90;;;;;;;13.60;76.66;98953.53;4931992;29;20564;-82
2023/03/11 05:15:06;;;;;;;12.45;4.68;;;;;;;13.67;77.01;98963.25;4939421;29;20469;-85
2023/03/11 05:17:32;;;;;;;15.07;5.25;;;;;;;13.81;76.76;98963.09;4925757;29;20062;-84
2023/03/11 05:19:57;;;;;;;10.38;4.30;;;;;;;13.93;75.56;98948.66;4951524;29;20114;-84
2023/03/11 05:22:23;;;;;;;15.35;4.90;;;;;;;13.92;75.19;98940.75;4937083;29;20465;-83
2023/03/11 05:24:49;;;;;;;12.13;4.80;;;;;;;13.80;75.12;98939.84;4937887;29;20047;-83
2023/03/11 05:27:18;;;;;;;14.95;4.80;;;;;;;13.83;75.27;98944.81;4936412;29;20047;-80
2023/03/11 05:29:47;;;;;;;12.15;4.57;;;;;;;13.69;75.18;98944.94;4937482;29;20457;-83
2023/03/11 05:32:13;;;;;;;12.20;4.70;;;;;;;13.59;75.59;98916.81;4950726;28;20043;-86
2023/03/11 05:34:38;;;;;;;12.13;4.65;;;;;;;13.71;75.63;98937.44;4934693;29;20496;-83
2023/03/11 05:37:04;;;;;;;12.55;4.88;;;;;;;13.76;75.91;98938.66;4918894;29;20040;-82
2023/03/11 05:39:30;;;;;;;14.88;5.35;;;;;;;13.68;75.33;98927.09;4952127;29;20106;-83
2023/03/11 05:41:57;;;;;;;12.60;5.20;;;;;;;13.82;75.63;98943.97;4915996;29;20035;-83
2023/03/11 05:44:23;;;;;;;12.18;4.90;;;;;;;13.71;75.32;98942.84;4916146;28;20058;-86
2023/03/11 05:46:48;;;;;;;17.58;6.13;;;;;;;13.66;75.83;98948.09;4932113;29;20416;-84
2023/03/11 05:49:16;;;;;;;17.30;6.60;;;;;;;13.75;76.49;98937.00;4915728;29;20051;-84
2023/03/11 05:51:41;;;;;;;14.38;6.32;;;;;;;13.71;76.95;98945.53;4950586;29;20138;-87
2023/03/11 05:54:13;;;;;;;21.05;6.43;;;;;;;13.72;76.98;98939.09;4907918;29;20055;-85
2023/03/11 05:57:02;;;;;;;16.08;6.60;;;;;;;13.41;77.81;98937.28;4944533;29;20079;-86
2023/03/11 05:59:28;;;;;;;19.67;7.03;;;;;;;13.71;77.60;98950.94;4949076;29;20411;-86
2023/03/11 06:01:54;;;;;;;17.63;6.95;;;;;;;13.75;77.57;98964.84;4931737;29;20046;-86
2023/03/11 06:04:23;;;;;;;15.45;7.25;;;;;;;13.88;77.51;98958.47;4935137;29;20711;-85
2023/03/11 06:06:48;;;;;;;16.35;7.47;;;;;;;13.99;77.29;98948.78;4946646;28;20118;-84
2023/03/11 06:09:14;;;;;;;13.82;6.60;;;;;;;14.10;76.58;98951.56;4916923;29;20582;-82
2023/03/11 06:11:41;;;;;;;16.10;7.05;;;;;;;14.02;77.47;98948.34;4930981;28;20051;-84
2023/03/11 06:14:12;;;;;;;16.85;5.90;;;;;;;13.97;77.50;98930.09;4947375;29;20522;-84
2023/03/11 06:16:38;;;;;;;16.65;6.82;;;;;;;13.99;78.09;98928.00;4922542;29;20044;-84
2023/03/11 06:19:05;;;;;;;19.90;6.65;;;;;;;14.21;77.86;98952.72;4946077;29;20074;-83
2023/03/11 06:21:32;;;;;;;16.85;6.68;;;;;;;14.21;77.67;98935.63;4935934;29;20102;-84
2023/03/11 06:23:59;;;;;;;16.80;6.82;;;;;;;14.32;77.77;98929.47;4938178;29;20082;-84
2023/03/11 06:26:24;;;;;;;20.25;7.32;;;;;;;14.52;77.02;98942.75;4926336;29;20121;-84
2023/03/11 06:28:50;;;;;;;14.98;5.47;;;;;;;14.52;76.91;98927.34;4928001;29;20172;-83
2023/03/11 06:31:24;;;;;;;;;;;;;;;14.73;76.02;98941.44;4917146;29;20134;-82
2023/03/11 06:33:50;;;;;;;14.45;4.93;;;;;;;14.72;75.73;98926.25;4920263;29;19966;-86
2023/03/11 06:36:16;;;;;;;20.95;5.38;;;;;;;14.90;75.71;98928.91;4922513;29;20165;-84
2023/03/11 06:38:42;;;;;;;20.25;5.30;;;;;;;14.98;74.94;98928.59;4923037;29;20051;-87
2023/03/11 06:41:07;;;;;;;22.63;5.75;;;;;;;15.26;73.74;98920.84;4937501;29;20062;-84
2023/03/11 06:43:33;;;;;;;;;;;;;;;15.70;71.91;98916.78;4921811;29;20055;-84
2023/03/11 06:46:00;;;;;;;15.63;5.53;;;;;;;15.97;70.55;98905.44;4921403;29;20386;-84
2023/03/11 06:48:28;;;;;;;12.88;4.30;;;;;;;16.60;68.02;98914.53;4937820;29;20137;-84
2023/03/11 06:50:59;;;;;;;12.38;4.43;;;;;;;16.43;67.92;98906.34;4907258;29;20161;-85
2023/03/11 06:53:26;;;;;;;18.08;4.50;;;;;;;16.38;67.85;98909.78;4925158;29;20047;-83
2023/03/11 06:56:10;;;;;;;13.35;4.15;;;;;;;16.36;67.66;98903.78;4930436;28;20185;-84
2023/03/11 06:58:40;;;;;;;13.73;4.30;;;;;;;16.31;67.58;98900.16;4919954;29;20470;-86
2023/03/11 07:01:08;;;;;;;16.63;5.00;;;;;;;16.52;67.26;98899.47;4929645;29;20043;-84
2023/03/11 07:03:34;;;;;;;15.32;5.05;;;;;;;16.56;66.66;98892.50;4926298;29;20043;-84
2023/03/11 07:06:02;;;;;;;;;;;;;;;16.70;66.30;98894.94;4922124;29;20046;-85
2023/03/11 07:08:29;;;;;;;17.48;4.43;;;;;;;16.54;66.60;98894.63;4922013;29;20009;-83
2023/03/11 07:11:06;;;;;;;16.20;4.50;;;;;;;16.50;66.55;98882.63;4931898;29;20054;-83
2023/03/11 07:13:32;;;;;;;14.23;4.28;;;;;;;16.58;66.66;98887.66;4920789;29;20047;-84
2023/03/11 07:16:05;;;;;;;;;;;;;;;16.65;66.13;98891.06;4917281;29;20174;-84
2023/03/11 07:18:30;;;;;;;24.83;4.95;;;;;;;16.48;66.53;98876.59;4935231;29;19922;-85
2023/03/11 07:20:56;;;;;;;;;;;;;;;16.61;66.03;98889.88;4932716;29;20036;-83
2023/03/11 07:23:21;;;;;;;16.55;3.90;;;;;;;16.53;66.12;98884.00;4916890;29;20002;-85
2023/03/11 07:25:47;;;;;;;;;;;;;;;16.81;64.72;98877.75;4926113;29;20079;-84
2023/03/11 07:28:14;;;;;;;;;;;;;;;16.91;64.19;98879.84;4935290;29;20371;-83
2023/03/11 07:30:40;;;;;;;12.75;3.55;;;;;;;17.19;63.41;98857.22;4940557;29;19915;-82
2023/03/11 07:33:05;;;;;;;;;;;;;;;17.89;60.96;98851.19;4925457;29;20070;-84
2023/03/11 07:35:34;;;;;;;15.60;3.35;;;;;;;17.98;60.39;98843.41;4925605;29;19937;-84
2023/03/11 07:38:00;;;;;;;13.50;3.08;;;;;;;18.42;59.05;98831.63;4936195;28;20107;-83
2023/03/11 07:40:25;;;;;;;;;;;;;;;19.44;56.32;98843.38;4911203;29;20039;-85
2023/03/11 07:42:52;;;;;;;11.05;3.13;;;;;;;19.90;54.13;98824.59;4937838;29;19942;-85
2023/03/11 07:45:18;;;;;;;12.40;2.72;;;;;;;20.28;52.62;98829.88;4922612;29;20039;-84
2023/03/11 07:47:44;;;;;;;16.20;2.85;;;;;;;19.35;54.02;98813.09;4933537;28;20544;-83
2023/03/11 07:50:10;;;;;;;12.30;3.08;;;;;;;19.43;54.13;98816.41;4909270;29;20070;-83
2023/03/11 07:52:37;;;;;;;11.43;3.00;;;;;;;19.46;53.95;98818.63;4943984;29;20081;-84
2023/03/11 07:55:03;;;;;;;16.05;2.95;;;;;;;19.20;54.65;98815.72;4951075;28;20126;-84
2023/03/11 07:57:28;;;;;;;13.75;2.90;;;;;;;19.03;55.00;98818.59;4926961;29;20107;-84
2023/03/11 07:59:56;;;;;;;11.15;3.30;;;;;;;18.45;55.20;98799.31;4918691;29;20043;-83
2023/03/11 08:02:23;;;;;;;13.55;3.25;;;;;;;18.49;55.47;98794.16;4915228;29;20122;-83
2023/03/11 08:04:49;;;;;;;10.63;3.05;;;;;;;18.50;55.29;98782.22;4917108;29;20047;-83
2023/03/11 08:07:15;;;;;;;;;;;;;;;18.87;54.16;98793.16;4930957;29;20046;-82
2023/03/11 08:09:41;;;;;;;11.43;3.20;;;;;;;18.73;54.51;98789.19;4930777;29;20001;-83
2023/03/11 08:12:08;;;;;;;10.95;2.80;;;;;;;18.63;54.52;98775.50;4926217;28;20491;-82
2023/03/11 08:14:34;;;;;;;;;;;;;;;18.75;53.82;98787.03;4950035;28;20043;-83
2023/03/11 08:17:00;;;;;;;12.55;3.30;;;;;;;19.02;53.14;98783.47;4943365;28;20042;-81
2023/03/11 08:19:25;;;;;;;;;;;;;;;19.08;53.01;98776.94;4943269;29;20051;-83
2023/03/11 08:21:53;;;;;;;8.10;2.72;;;;;;;19.42;52.26;98758.34;4940966;28;20170;-82
2023/03/11 08:24:18;;;;;;;9.35;2.72;;;;;;;21.44;46.95;98767.34;4928068;29;20071;-87
2023/03/11 08:26:47;;;;;;;11.63;2.80;;;;;;;21.01;47.65;98772.34;4932399;28;20047;-86
2023/03/11 08:29:15;;;;;;;11.10;2.72;;;;;;;22.96;43.02;98767.50;4923558;29;20139;-89
2023/03/11 08:31:47;;;;;;;11.00;2.30;;;;;;;22.23;44.12;98778.50;4913002;29;20136;-90
2023/03/11 08:34:13;;;;;;;10.65;2.72;;;;;;;21.31;45.86;98743.31;4927199;29;20043;-91
2023/03/11 08:36:38;;;;;;;10.90;2.80;;;;;;;21.41;45.89;98732.38;4915639;28;20118;-86
2023/03/11 08:39:07;;;;;;;14.38;3.00;;;;;;;21.35;46.14;98744.38;4909311;29;20051;-84
2023/03/11 08:41:33;;;;;;;16.83;3.00;;;;;;;20.44;48.34;98772.31;4930901;29;20046;-85
2023/03/11 08:44:00;;;;;;;14.55;3.40;;;;;;;21.39;46.17;98745.47;4928730;29;20039;-88
2023/03/11 08:46:31;;;;;;;13.07;3.15;;;;;;;20.86;47.19;98741.22;4917458;29;20062;-87
2023/03/11 08:48:57;;;;;;;15.55;3.28;;;;;;;20.70;47.36;98720.50;4931564;29;20043;-83
2023/03/11 08:51:25;;;;;;;12.88;2.85;;;;;;;20.58;47.77;98745.34;4916782;29;20410;-89
2023/03/11 08:53:51;;;;;;;12.85;3.20;;;;;;;20.87;47.66;98725.66;4899383;29;20074;-83
2023/03/11 08:56:17;;;;;;;13.05;2.95;;;;;;;20.55;48.29;98758.69;4922302;29;20114;-86
2023/03/11 08:58:42;;;;;;;16.35;3.28;;;;;;;20.44;48.66;98753.22;4941143;29;20039;-86
2023/03/11 09:01:09;;;;;;;9.02;2.80;;;;;;;20.24;48.78;98750.47;4922604;29;20054;-82
2023/03/11 09:03:36;;;;;;;9.93;2.45;;;;;;;19.66;49.18;98736.09;4915219;29;20189;-82
2023/03/11 09:06:03;;;;;;;21.30;3.35;;;;;;;19.53;49.71;98732.78;4930062;29;20466;-83
2023/03/11 09:08:33;;;;;;;11.00;2.90;;;;;;;19.01;50.85;98732.78;4929186;29;20050;-83
2023/03/11 09:11:02;;;;;;;12.90;2.80;;;;;;;18.97;50.95;98737.97;4914181;29;20077;-86
2023/03/11 09:13:28;;;;;;;10.82;3.00;;;;;;;18.17;56.02;98732.41;4942383;29;20501;-88
2023/03/11 09:15:53;;;;;;;;;;;;;;;17.71;59.82;98734.59;4930280;29;20092;-85
2023/03/11 09:18:20;;;;;;;9.70;2.75;;;;;;;17.01;62.13;98725.28;4934080;29;19942;-82
2023/03/11 09:20:47;;;;;;;12.75;3.28;;;;;;;16.37;64.88;98741.91;4910194;29;20035;-84
2023/03/11 09:23:15;;;;;;;12.38;3.30;;;;;;;15.60;71.16;98759.44;4913722;28;20043;-87
2023/03/11 09:25:41;;;;;;;15.80;3.83;;;;;;;15.36;71.66;98772.19;4927665;29;20134;-85
2023/03/11 09:28:06;;;;;;;11.20;3.42;;;;;;;15.21;68.16;98799.75;4931175;29;20054;-86
2023/03/11 09:30:36;;;;;;;;;;;;;;;15.03;70.44;98813.38;4927151;29;20035;-89
2023/03/11 09:33:11;;;;;;;5.80;2.50;;;;;;;14.55;69.91;98817.91;4936945;29;20013;-87
2023/03/11 09:35:39;;;;;;;6.78;3.00;;;;;;;14.08;73.11;98786.13;4936427;29;20043;-82
2023/03/11 09:38:05;;;;;;;8.55;4.00;;;;;;;13.97;75.10;98799.59;4932252;29;20106;-86
2023/03/11 09:41:21;;;;;;;10.38;3.72;;;;;;;14.06;75.59;98836.88;4921825;29;20035;-85
2023/03/11 09:43:53;;;;;;;10.23;4.10;;;;;;;13.98;75.76;98815.59;4943960;29;20043;-84
2023/03/11 09:46:54;;;;;;;10.45;4.15;;;;;;;14.04;78.03;98830.06;4924514;29;20504;-87
2023/03/11 09:49:55;;;;;;;11.55;3.92;;;;;;;13.94;78.57;98822.50;4949304;29;20083;-84
2023/03/11 09:52:50;;;;;;;14.35;5.22;;;;;;;13.91;81.84;98790.53;4951285;29;20469;-84
2023/03/11 09:55:41;;;;;;;16.10;7.45;;;;;;;14.11;80.93;98818.09;4931442;29;20051;-85
2023/03/11 09:58:29;;;;;;;20.05;12.93;;;;;;;14.02;80.26;98780.81;4954262;29;20035;-89
2023/03/11 10:00:55;;;;;;;13.55;5.68;;;;;;;14.26;80.39;98787.16;4926411;29;20073;-88
2023/03/11 10:03:26;;;;;;;13.73;6.03;;;;;;;14.41;79.52;98773.19;4948608;29;20040;-87
2023/03/11 10:05:56;;;;;;;8.07;4.85;;;;;;;15.16;77.43;98759.84;4938333;29;20047;-89
2023/03/11 10:08:32;;;;;;;11.23;4.60;;;;;;;15.80;74.60;98757.16;4932734;29;20057;-90
2023/03/11 10:11:27;;;;;;;7.43;4.30;;;;;;;17.63;69.13;98754.06;4943243;29;20198;-89
2023/03/11 10:13:59;;;;;;;;;;;;;;;18.64;64.75;98767.09;4932739;29;20126;-89
2023/03/11 10:16:39;;;;;;;10.73;4.38;;;;;;;18.31;64.88;98766.25;4953440;29;20383;-89
2023/03/11 10:19:42;;;;;;;12.43;6.85;;;;;;;18.26;67.52;98785.25;4935214;29;20062;-93
2023/03/11 10:22:37;;;;;;;11.50;7.55;;;;;;;17.99;63.97;98790.66;4935528;29;20087;-89
2023/03/11 10:25:11;;;;;;;9.05;6.68;;;;;;;17.72;64.06;98779.72;4947922;29;20165;-88
2023/03/11 10:28:00;;;;;;;7.70;5.50;;;;;;;17.86;66.48;98758.44;4918495;29;20039;-89
2023/03/11 10:30:56;;;;;;;8.85;5.20;;;;;;;18.42;62.20;98741.84;4939500;29;20043;-89
2023/03/11 10:33:28;;;;;;;7.53;4.38;;;;;;;18.17;62.22;98743.28;4923642;29;20047;-93
2023/03/11 10:35:56;;;;;;;5.97;4.30;;;;;;;17.36;63.82;98727.66;4950114;29;20039;-89
2023/03/11 10:38:41;;;;;;;6.35;3.60;;;;;;;16.91;65.10;98753.09;4930780;29;20126;-89
2023/03/11 10:41:27;;;;;;;7.13;3.60;;;;;;;16.77;65.69;98746.34;4939780;29;20039;-88
2023/03/11 10:43:59;;;;;;;5.03;3.38;;;;;;;16.20;67.88;98742.72;4943494;28;20535;-89
2023/03/11 10:46:28;;;;;;;6.25;3.67;;;;;;;16.01;67.77;98723.13;4938247;29;20047;-92
2023/03/11 10:48:55;;;;;;;5.28;3.70;;;;;;;15.92;69.14;98734.59;4929438;29;20051;-89
2023/03/11 10:51:26;;;;;;;6.57;4.05;;;;;;;16.01;68.88;98743.97;4922082;29;20039;-89
2023/03/11 10:54:03;;;;;;;4.60;3.47;;;;;;;16.37;68.84;98731.06;4944660;28;20054;-90
2023/03/11 10:56:37;;;;;;;3.83;2.78;;;;;;;16.52;65.58;98725.88;4919492;29;20099;-90
2023/03/11 10:59:24;;;;;;;4.80;2.78;;;;;;;17.06;63.42;98728.88;4917031;29;20480;-92
2023/03/11 11:01:57;;;;;;;5.72;2.70;;;;;;;17.77;60.53;98711.00;4939808;29;20150;-92
2023/03/11 11:05:09;;;;;;;6.03;2.50;;;;;;;18.30;58.65;98710.19;4937363;29;20492;-88
2023/03/11 11:07:43;;;;;;;3.67;2.65;;;;;;;18.81;57.92;98707.09;4940551;29;20051;-94
2023/03/11 11:10:45;;;;;;;5.55;2.88;;;;;;;20.26;52.51;98701.09;4934112;29;20579;-95
2023/03/11 11:13:12;;;;;;;4.30;2.53;;;;;;;21.51;49.50;98691.31;4948258;29;20046;-94
2023/03/11 11:16:02;;;;;;;7.75;5.13;;;;;;;22.12;47.63;98690.97;4954938;29;20043;-96
2023/03/11 11:18:46;;;;;;;4.82;2.75;;;;;;;23.06;45.86;98650.72;4951245;28;20452;-95
2023/03/11 11:21:36;;;;;;;4.32;2.03;;;;;;;23.07;44.59;98672.34;4917982;29;20044;-94
2023/03/11 11:28:29;;;;;;;2.85;1.75;;;;;;;20.94;48.29;98679.75;4864043;29;20120;-95
2023/03/11 11:31:28;;;;;;;3.35;1.80;;;;;;;19.89;49.46;98669.41;4874057;29;20468;-94
2023/03/11 11:34:00;;;;;;;5.72;2.90;;;;;;;19.25;52.00;98665.94;4937315;29;20043;-93
2023/03/11 11:37:30;;;;;;;3.25;2.20;;;;;;;19.12;51.97;98675.38;4967895;28;20047;-94
2023/03/11 11:40:09;;;;;;;3.30;1.83;;;;;;;18.55;52.96;98649.72;4882366;29;20475;-91
2023/03/11 11:42:49;;;;;;;4.97;2.10;;;;;;;18.64;53.75;98676.47;4949223;28;20058;-94
2023/03/11 11:45:38;;;;;;;3.65;1.70;;;;;;;18.05;54.10;98663.75;4949576;29;20055;-94
2023/03/11 11:48:48;;;;;;;3.67;1.70;;;;;;;17.99;54.13;98643.03;4927446;29;20055;-94
2023/03/11 11:51:56;;;;;;;3.67;1.63;;;;;;;17.64;54.46;98655.97;4905296;29;20094;-93
2023/03/11 11:54:31;;;;;;;3.78;1.80;;;;;;;17.50;55.72;98679.19;4917017;28;20170;-92